createdAt,value
2019-05-09T00:01:35.076Z,4.57
2019-05-09T00:04:04.324Z,4.17
2019-05-09T00:06:34.072Z,3.70
2019-05-09T00:09:03.927Z,3.73
2019-05-09T00:11:33.638Z,3.83
2019-05-09T00:14:04.420Z,4.53
2019-05-09T00:16:34.059Z,4.87
2019-05-09T00:19:03.525Z,4.40
2019-05-09T00:21:40.655Z,5.13
2019-05-09T00:24:09.811Z,4.47
2019-05-09T00:26:39.054Z,5.47
2019-05-09T00:29:14.058Z,6.10
2019-05-09T00:31:54.099Z,6.77
2019-05-09T00:34:45.349Z,7.50
2019-05-09T00:37:14.591Z,7.40
2019-05-09T00:39:43.767Z,9.03
2019-05-09T00:42:13.668Z,7.80
2019-05-09T00:44:45.130Z,7.03
2019-05-09T00:47:25.051Z,7.43
2019-05-09T00:49:54.321Z,6.03
2019-05-09T00:52:23.559Z,7.93
2019-05-09T00:54:53.187Z,5.13
2019-05-09T00:57:34.523Z,5.37
2019-05-09T01:00:07.946Z,5.63
2019-05-09T01:02:37.202Z,6.53
2019-05-09T01:05:06.573Z,3.93
2019-05-09T01:07:35.714Z,3.77
2019-05-09T01:10:05.285Z,4.87
2019-05-09T01:12:34.423Z,5.70
2019-05-09T01:15:03.629Z,4.23
2019-05-09T01:17:33.542Z,3.93
2019-05-09T01:20:03.602Z,4.03
2019-05-09T01:22:33.206Z,4.73
2019-05-09T01:25:04.179Z,5.53
2019-05-09T01:27:34.020Z,6.73
2019-05-09T01:30:04.570Z,5.83
2019-05-09T01:33:03.691Z,4.13
2019-05-09T01:35:34.020Z,4.00
2019-05-09T01:38:03.667Z,9.03
2019-05-09T01:40:33.262Z,4.80
2019-05-09T01:43:04.495Z,4.90
2019-05-09T01:45:34.296Z,5.83
2019-05-09T01:48:03.710Z,4.80
2019-05-09T01:50:34.036Z,5.17
2019-05-09T01:53:04.008Z,5.90
2019-05-09T01:55:51.059Z,6.33
2019-05-09T01:58:20.293Z,5.30
2019-05-09T02:00:49.535Z,6.17
2019-05-09T02:03:18.750Z,6.53
2019-05-09T02:05:47.914Z,6.07
2019-05-09T02:08:17.131Z,5.40
2019-05-09T02:10:46.366Z,7.90
2019-05-09T02:13:15.579Z,6.63
2019-05-09T02:16:14.115Z,6.23
2019-05-09T02:18:49.347Z,6.73
2019-05-09T02:21:18.584Z,5.50
2019-05-09T02:23:47.807Z,5.83
2019-05-09T02:26:17.047Z,6.13
2019-05-09T02:28:46.259Z,6.23
2019-05-09T02:31:16.483Z,5.97
2019-05-09T02:33:46.110Z,7.67
2019-05-09T02:36:18.708Z,6.63
2019-05-09T02:38:48.690Z,6.77
2019-05-09T02:41:19.600Z,5.70
2019-05-09T02:43:49.631Z,7.57
2019-05-09T02:46:38.642Z,5.57
2019-05-09T02:49:08.796Z,5.67
2019-05-09T02:51:38.895Z,6.27
2019-05-09T02:54:09.883Z,7.83
2019-05-09T02:56:39.129Z,8.40
2019-05-09T02:59:29.414Z,6.77
2019-05-09T03:02:14.431Z,6.23
2019-05-09T03:04:43.653Z,5.10
2019-05-09T03:07:12.891Z,6.23
2019-05-09T03:09:42.283Z,5.83
2019-05-09T03:12:26.853Z,6.43
2019-05-09T03:14:42.508Z,5.07
2019-05-09T03:17:11.826Z,6.03
2019-05-09T03:19:41.112Z,5.27
2019-05-09T03:22:18.752Z,5.90
2019-05-09T03:24:48.659Z,6.07
2019-05-09T03:27:28.501Z,4.83
2019-05-09T03:29:58.942Z,5.93
2019-05-09T03:32:29.772Z,5.13
2019-05-09T03:34:59.264Z,6.63
2019-05-09T03:37:28.422Z,5.10
2019-05-09T03:39:58.155Z,7.50
2019-05-09T03:42:38.048Z,5.03
2019-05-09T03:44:58.389Z,3.87
2019-05-09T03:48:02.044Z,5.10
2019-05-09T03:50:31.246Z,4.63
2019-05-09T03:53:00.405Z,3.93
2019-05-09T03:55:33.699Z,5.87
2019-05-09T03:58:07.963Z,3.70
2019-05-09T04:00:37.592Z,4.80
2019-05-09T04:03:08.188Z,3.70
2019-05-09T04:05:37.727Z,4.10
2019-05-09T04:08:19.844Z,5.00
2019-05-09T04:10:50.936Z,5.40
2019-05-09T04:13:22.784Z,4.13
2019-05-09T04:15:52.409Z,4.90
2019-05-09T04:18:21.575Z,4.90
2019-05-09T04:20:50.726Z,5.30
2019-05-09T04:23:20.028Z,5.53
2019-05-09T04:26:01.895Z,4.20
2019-05-09T04:28:31.063Z,7.17
2019-05-09T04:31:00.266Z,5.20
2019-05-09T04:33:29.452Z,4.53
2019-05-09T04:35:58.598Z,8.63
2019-05-09T04:38:28.047Z,4.97
2019-05-09T04:40:58.401Z,4.77
2019-05-09T04:43:35.450Z,3.83
2019-05-09T04:46:00.769Z,4.03
2019-05-09T04:48:33.986Z,5.73
2019-05-09T04:51:04.811Z,5.00
2019-05-09T04:53:34.701Z,6.23
2019-05-09T04:56:14.790Z,4.80
2019-05-09T04:58:43.980Z,8.67
2019-05-09T05:01:28.204Z,8.03
2019-05-09T05:03:57.539Z,4.33
2019-05-09T05:06:28.119Z,7.20
2019-05-09T05:08:58.568Z,5.87
2019-05-09T05:11:28.093Z,4.67
2019-05-09T05:13:58.672Z,6.43
2019-05-09T05:16:28.204Z,4.73
2019-05-09T05:18:58.368Z,6.90
2019-05-09T05:21:28.421Z,8.63
2019-05-09T05:24:05.370Z,7.60
2019-05-09T05:26:34.516Z,5.10
2019-05-09T05:29:03.676Z,5.93
2019-05-09T05:31:32.886Z,6.17
2019-05-09T05:34:08.328Z,9.53
2019-05-09T05:36:38.378Z,7.87
2019-05-09T05:39:08.619Z,6.63
2019-05-09T05:41:37.977Z,7.10
2019-05-09T05:44:08.521Z,6.30
2019-05-09T05:46:50.801Z,8.53
2019-05-09T05:49:19.895Z,5.90
2019-05-09T05:51:49.217Z,6.40
2019-05-09T05:54:20.178Z,8.60
2019-05-09T05:56:49.395Z,8.37
2019-05-09T05:59:18.791Z,7.73
2019-05-09T06:01:48.113Z,8.93
2019-05-09T06:04:18.608Z,9.10
2019-05-09T06:06:48.268Z,8.40
2019-05-09T06:09:18.978Z,8.50
2019-05-09T06:11:48.707Z,9.87
2019-05-09T06:14:18.634Z,11.73
2019-05-09T06:16:48.626Z,8.07
2019-05-09T06:19:18.305Z,8.93
2019-05-09T06:21:49.239Z,8.27
2019-05-09T06:24:18.686Z,9.17
2019-05-09T06:26:48.068Z,10.63
2019-05-09T06:29:17.931Z,11.00
2019-05-09T06:31:48.418Z,11.60
2019-05-09T06:34:18.738Z,7.80
2019-05-09T06:36:49.081Z,8.43
2019-05-09T06:39:18.463Z,8.73
2019-05-09T06:41:48.565Z,9.67
2019-05-09T06:44:40.183Z,9.53
2019-05-09T06:47:28.354Z,9.00
2019-05-09T06:49:58.723Z,8.50
2019-05-09T06:52:28.309Z,11.23
2019-05-09T06:54:58.234Z,9.80
2019-05-09T06:57:28.256Z,10.30
2019-05-09T06:59:58.092Z,9.00
2019-05-09T07:02:38.723Z,8.37
2019-05-09T07:05:17.907Z,14.50
2019-05-09T07:08:08.823Z,6.77
2019-05-09T07:10:38.210Z,8.17
2019-05-09T07:13:08.052Z,6.37
2019-05-09T07:15:37.673Z,8.07
2019-05-09T07:18:08.121Z,12.20
2019-05-09T07:20:37.950Z,6.93
2019-05-09T07:23:09.006Z,11.10
2019-05-09T07:26:03.338Z,8.20
2019-05-09T07:28:32.587Z,7.23
2019-05-09T07:31:28.413Z,6.87
2019-05-09T07:34:10.543Z,7.93
2019-05-09T07:36:39.714Z,10.60
2019-05-09T07:39:09.142Z,7.73
2019-05-09T07:41:38.586Z,8.63
2019-05-09T07:44:07.847Z,7.93
2019-05-09T07:46:43.319Z,7.97
2019-05-09T07:49:13.930Z,7.97
2019-05-09T07:51:43.159Z,7.77
2019-05-09T07:54:24.009Z,7.87
2019-05-09T07:56:43.263Z,7.67
2019-05-09T07:59:12.431Z,9.07
2019-05-09T08:01:41.932Z,13.27
2019-05-09T08:04:11.079Z,10.23
2019-05-09T08:06:41.220Z,8.30
2019-05-09T08:09:10.441Z,7.43
2019-05-09T08:11:39.732Z,8.13
2019-05-09T08:14:10.853Z,8.57
2019-05-09T08:16:39.775Z,8.87
2019-05-09T08:19:08.996Z,9.60
2019-05-09T08:21:38.484Z,11.37
2019-05-09T08:24:08.209Z,9.63
2019-05-09T08:26:39.582Z,7.83
2019-05-09T08:29:09.420Z,10.03
2019-05-09T08:31:40.420Z,8.00
2019-05-09T08:34:09.687Z,6.53
2019-05-09T08:36:38.851Z,8.00
2019-05-09T08:39:08.783Z,6.07
2019-05-09T08:41:38.621Z,7.73
2019-05-09T08:44:08.184Z,6.00
2019-05-09T08:46:37.854Z,8.30
2019-05-09T08:49:08.191Z,8.43
2019-05-09T08:52:10.055Z,11.37
2019-05-09T08:54:44.905Z,8.60
2019-05-09T08:57:14.156Z,9.50
2019-05-09T08:59:46.675Z,6.17
2019-05-09T09:02:18.090Z,6.50
2019-05-09T09:04:45.252Z,7.62
2019-05-09T09:07:14.457Z,5.57
2019-05-09T09:09:43.609Z,6.20
2019-05-09T09:12:25.906Z,5.83
2019-05-09T09:14:43.731Z,7.97
2019-05-09T09:17:12.880Z,5.57
2019-05-09T09:19:42.162Z,6.57
2019-05-09T09:22:11.300Z,8.07
2019-05-09T09:24:40.583Z,7.07
2019-05-09T09:27:09.739Z,8.60
2019-05-09T09:29:39.011Z,7.30
2019-05-09T09:32:08.546Z,8.17
2019-05-09T09:34:38.171Z,7.53
2019-05-09T09:37:11.238Z,8.63
2019-05-09T09:39:44.564Z,7.33
2019-05-09T09:42:09.457Z,7.80
2019-05-09T09:44:39.366Z,9.67
2019-05-09T09:47:09.147Z,6.73
2019-05-09T09:49:38.685Z,8.10
2019-05-09T09:52:08.734Z,7.87
2019-05-09T09:54:38.761Z,4.63
2019-05-09T09:57:09.751Z,6.53
2019-05-09T09:59:54.823Z,6.90
2019-05-09T10:02:28.048Z,6.73
2019-05-09T10:05:34.256Z,6.07
2019-05-09T10:08:03.553Z,4.90
2019-05-09T10:10:34.840Z,5.13
2019-05-09T10:13:04.411Z,4.77
2019-05-09T10:15:39.990Z,3.63
2019-05-09T10:18:28.676Z,6.07
2019-05-09T10:21:03.964Z,4.73
2019-05-09T10:23:33.224Z,3.60
2019-05-09T10:26:02.839Z,4.83
2019-05-09T10:28:32.067Z,3.67
2019-05-09T10:31:01.343Z,3.50
2019-05-09T10:33:30.483Z,4.03
2019-05-09T10:36:04.437Z,3.10
2019-05-09T10:38:30.555Z,2.90
2019-05-09T10:41:01.809Z,2.63
2019-05-09T10:43:48.791Z,2.80
2019-05-09T10:46:52.603Z,2.43
2019-05-09T10:49:10.179Z,2.60
2019-05-09T10:51:39.419Z,2.50
2019-05-09T10:54:08.801Z,2.70
2019-05-09T10:56:38.601Z,2.60
2019-05-09T10:59:08.076Z,2.83
2019-05-09T11:01:38.114Z,2.20
2019-05-09T11:04:08.394Z,3.13
2019-05-09T11:06:38.368Z,2.50
2019-05-09T11:09:09.329Z,3.37
2019-05-09T11:11:38.714Z,2.00
2019-05-09T11:14:08.707Z,3.70
2019-05-09T11:16:45.809Z,2.27
2019-05-09T11:19:09.026Z,3.43
2019-05-09T11:21:39.250Z,2.30
2019-05-09T11:24:08.710Z,4.90
2019-05-09T11:26:39.875Z,2.20
2019-05-09T11:29:08.860Z,3.77
2019-05-09T11:31:38.562Z,2.37
2019-05-09T11:34:08.932Z,2.20
2019-05-09T11:36:38.594Z,1.97
2019-05-09T11:39:10.770Z,5.03
2019-05-09T11:41:39.452Z,2.00
2019-05-09T11:44:08.828Z,1.93
2019-05-09T11:46:38.479Z,2.80
2019-05-09T11:49:08.539Z,2.10
2019-05-09T11:51:37.953Z,4.00
2019-05-09T11:54:09.169Z,2.60
2019-05-09T11:56:38.571Z,2.40
2019-05-09T11:59:08.127Z,2.03
2019-05-09T12:01:39.827Z,2.90
2019-05-09T12:04:08.325Z,2.10
2019-05-09T12:06:38.342Z,1.87
2019-05-09T12:09:08.887Z,2.50
2019-05-09T12:11:43.511Z,4.77
2019-05-09T12:14:09.403Z,5.13
2019-05-09T12:16:38.614Z,3.17
2019-05-09T12:19:07.883Z,3.37
2019-05-09T12:21:46.531Z,3.10
2019-05-09T12:24:09.205Z,3.90
2019-05-09T12:26:39.219Z,2.80
2019-05-09T12:29:08.922Z,2.50
2019-05-09T12:31:38.866Z,3.33
2019-05-09T12:34:09.085Z,3.27
2019-05-09T12:36:39.843Z,3.87
2019-05-09T12:39:09.638Z,3.37
2019-05-09T12:41:39.002Z,4.97
2019-05-09T12:44:09.031Z,3.77
2019-05-09T12:46:39.326Z,4.63
2019-05-09T12:49:09.202Z,2.40
2019-05-09T12:51:38.473Z,2.97
2019-05-09T12:54:08.521Z,3.83
2019-05-09T12:56:38.574Z,2.20
2019-05-09T12:59:08.758Z,2.30
2019-05-09T13:01:40.996Z,3.07
2019-05-09T13:04:09.906Z,2.70
2019-05-09T13:06:39.242Z,2.83
2019-05-09T13:09:08.575Z,3.17
2019-05-09T13:11:39.118Z,2.67
2019-05-09T13:14:10.031Z,2.43
2019-05-09T13:16:58.610Z,2.00
2019-05-09T13:19:33.913Z,2.23
2019-05-09T13:22:03.080Z,2.47
2019-05-09T13:24:32.931Z,3.60
2019-05-09T13:27:02.164Z,2.80
2019-05-09T13:29:31.485Z,2.47
2019-05-09T13:32:00.776Z,3.93
2019-05-09T13:34:29.955Z,1.87
2019-05-09T13:36:59.239Z,2.43
2019-05-09T13:39:28.610Z,3.00
2019-05-09T13:41:58.474Z,2.13
2019-05-09T13:44:27.921Z,2.03
2019-05-09T13:46:58.430Z,2.10
2019-05-09T13:49:28.603Z,2.17
2019-05-09T13:52:04.182Z,3.70
2019-05-09T13:54:28.957Z,2.30
2019-05-09T13:57:01.352Z,5.50
2019-05-09T13:59:30.315Z,2.23
2019-05-09T14:02:00.130Z,2.40
2019-05-09T14:04:29.484Z,4.07
2019-05-09T14:06:58.761Z,2.57
2019-05-09T14:09:29.153Z,2.17
2019-05-09T14:11:59.143Z,2.20
2019-05-09T14:14:28.342Z,2.30
2019-05-09T14:16:59.202Z,2.40
2019-05-09T14:19:39.633Z,2.30
2019-05-09T14:21:59.337Z,2.53
2019-05-09T14:24:28.643Z,2.43
2019-05-09T14:26:58.344Z,2.47
2019-05-09T14:29:31.492Z,2.73
2019-05-09T14:31:58.646Z,2.43
2019-05-09T14:34:30.159Z,2.20
2019-05-09T14:36:58.754Z,2.60
2019-05-09T14:39:28.005Z,3.23
2019-05-09T14:41:57.836Z,2.10
2019-05-09T14:44:27.790Z,2.30
2019-05-09T14:46:58.372Z,3.33
2019-05-09T14:49:39.724Z,2.10
2019-05-09T14:51:58.757Z,2.90
2019-05-09T14:54:28.957Z,1.50
2019-05-09T14:56:58.563Z,2.60
2019-05-09T14:59:28.571Z,1.53
2019-05-09T15:01:59.111Z,2.23
2019-05-09T15:04:28.687Z,1.33
2019-05-09T15:06:58.042Z,2.37
2019-05-09T15:09:28.361Z,2.40
2019-05-09T15:11:58.586Z,2.33
2019-05-09T15:14:28.947Z,2.53
2019-05-09T15:16:58.406Z,2.10
2019-05-09T15:19:28.766Z,1.93
2019-05-09T15:22:00.732Z,2.87
2019-05-09T15:24:29.187Z,2.00
2019-05-09T15:26:58.363Z,2.93
2019-05-09T15:29:28.961Z,1.70
2019-05-09T15:32:05.049Z,1.73
2019-05-09T15:34:29.502Z,2.00
2019-05-09T15:36:58.702Z,1.90
2019-05-09T15:39:28.195Z,1.90
2019-05-09T15:41:57.945Z,1.80
2019-05-09T15:44:27.391Z,3.63
2019-05-09T15:47:02.229Z,2.43
2019-05-09T15:49:31.375Z,1.80
2019-05-09T15:52:00.674Z,1.77
2019-05-09T15:54:29.816Z,1.87
2019-05-09T15:56:59.066Z,2.00
2019-05-09T15:59:28.296Z,2.03
2019-05-09T16:01:58.386Z,1.87
2019-05-09T16:04:28.183Z,3.20
2019-05-09T16:06:57.612Z,1.60
2019-05-09T16:09:28.630Z,1.90
2019-05-09T16:11:57.721Z,1.53
2019-05-09T16:14:27.704Z,2.67
2019-05-09T16:16:57.132Z,1.70
2019-05-09T16:19:26.418Z,1.80
2019-05-09T16:21:55.665Z,2.43
2019-05-09T16:24:24.901Z,4.00
2019-05-09T16:26:54.062Z,2.87
2019-05-09T16:29:23.383Z,2.60
2019-05-09T16:31:52.643Z,3.33
2019-05-09T16:34:21.859Z,5.23
2019-05-09T16:36:51.021Z,4.57
2019-05-09T16:39:20.328Z,3.80
2019-05-09T16:41:49.647Z,2.93
2019-05-09T16:44:18.840Z,2.93
2019-05-09T16:46:48.719Z,3.10
2019-05-09T16:49:20.022Z,2.37
2019-05-09T16:51:49.286Z,2.57
2019-05-09T16:54:18.703Z,2.53
2019-05-09T16:56:47.952Z,2.20
2019-05-09T16:59:18.106Z,1.90
2019-05-09T17:01:50.250Z,2.73
2019-05-09T17:04:19.359Z,2.10
2019-05-09T17:06:49.814Z,1.87
2019-05-09T17:09:19.166Z,2.03
2019-05-09T17:11:48.436Z,2.40
2019-05-09T17:14:19.345Z,3.53
2019-05-09T17:16:52.613Z,5.60
2019-05-09T17:19:19.779Z,2.23
2019-05-09T17:21:54.738Z,2.43
2019-05-09T17:24:25.139Z,3.00
2019-05-09T17:26:54.281Z,2.00
2019-05-09T17:29:23.533Z,2.00
2019-05-09T17:31:52.747Z,3.50
2019-05-09T17:34:21.935Z,3.23
2019-05-09T17:36:51.096Z,1.73
2019-05-09T17:39:20.333Z,1.80
2019-05-09T17:41:49.531Z,2.17
2019-05-09T17:44:18.767Z,6.27
2019-05-09T17:46:48.206Z,2.20
2019-05-09T17:49:17.648Z,2.10
2019-05-09T17:51:48.250Z,1.90
2019-05-09T17:54:18.364Z,2.20
2019-05-09T17:56:48.413Z,1.80
2019-05-09T17:59:18.377Z,2.00
2019-05-09T18:01:48.390Z,2.67
2019-05-09T18:04:18.067Z,3.10
2019-05-09T18:06:48.874Z,2.47
2019-05-09T18:09:18.938Z,3.17
2019-05-09T18:11:48.464Z,2.30
2019-05-09T18:14:18.532Z,2.00
2019-05-09T18:16:48.046Z,1.90
2019-05-09T18:19:17.941Z,2.97
2019-05-09T18:21:50.922Z,2.67
2019-05-09T18:24:18.339Z,3.97
2019-05-09T18:26:47.629Z,2.90
2019-05-09T18:29:18.177Z,2.87
2019-05-09T18:32:09.543Z,6.43
2019-05-09T18:34:38.791Z,3.23
2019-05-09T18:37:08.199Z,2.60
2019-05-09T18:39:37.597Z,2.83
2019-05-09T18:42:08.680Z,3.43
2019-05-09T18:44:37.883Z,2.80
2019-05-09T18:47:07.868Z,4.33
2019-05-09T18:49:37.251Z,4.47
2019-05-09T18:52:06.399Z,3.57
2019-05-09T18:54:35.575Z,2.50
2019-05-09T18:57:04.778Z,2.93
2019-05-09T18:59:34.123Z,2.50
2019-05-09T19:02:03.363Z,3.37
2019-05-09T19:04:32.617Z,3.07
2019-05-09T19:07:01.840Z,5.30
2019-05-09T19:09:31.074Z,3.40
2019-05-09T19:12:00.215Z,3.67
2019-05-09T19:14:29.663Z,2.60
2019-05-09T19:17:23.671Z,2.63
2019-05-09T19:20:01.003Z,2.73
2019-05-09T19:22:30.155Z,2.80
2019-05-09T19:24:59.426Z,2.83
2019-05-09T19:27:28.659Z,2.60
2019-05-09T19:29:57.898Z,3.40
2019-05-09T19:32:27.155Z,3.67
2019-05-09T19:34:56.324Z,6.70
2019-05-09T19:37:25.531Z,7.10
2019-05-09T19:39:54.765Z,11.13
2019-05-09T19:42:23.984Z,4.33
2019-05-09T19:44:53.232Z,5.17
2019-05-09T19:47:22.395Z,3.00
2019-05-09T19:49:51.712Z,3.03
2019-05-09T19:52:20.931Z,3.23
2019-05-09T19:54:50.175Z,4.50
2019-05-09T19:57:19.474Z,5.43
2019-05-09T19:59:48.711Z,3.70
2019-05-09T20:02:17.881Z,3.27
2019-05-09T20:04:47.150Z,3.13
2019-05-09T20:07:16.430Z,7.77
2019-05-09T20:09:50.867Z,3.43
2019-05-09T20:12:42.348Z,3.40
2019-05-09T20:15:13.303Z,3.43
2019-05-09T20:17:42.477Z,6.67
2019-05-09T20:20:12.182Z,4.43
2019-05-09T20:22:52.390Z,8.07
2019-05-09T20:25:12.366Z,4.20
2019-05-09T20:27:41.535Z,4.20
2019-05-09T20:30:11.088Z,4.10
2019-05-09T20:32:40.371Z,4.70
2019-05-09T20:35:09.665Z,6.53
2019-05-09T20:37:38.990Z,4.73
2019-05-09T20:40:08.426Z,5.30
2019-05-09T20:42:37.854Z,3.77
2019-05-09T20:45:07.486Z,3.50
2019-05-09T20:47:36.907Z,4.67
2019-05-09T20:50:06.399Z,5.40
2019-05-09T20:52:35.849Z,5.77
2019-05-09T20:55:05.471Z,6.23
2019-05-09T20:57:34.890Z,5.43
2019-05-09T21:00:04.645Z,5.47
2019-05-09T21:02:34.100Z,5.63
2019-05-09T21:05:03.493Z,5.43
2019-05-09T21:07:32.936Z,5.40
2019-05-09T21:10:02.343Z,5.50
2019-05-09T21:12:31.763Z,6.07
2019-05-09T21:15:01.172Z,5.47
2019-05-09T21:17:30.639Z,6.43
2019-05-09T21:19:59.970Z,6.00
2019-05-09T21:22:29.409Z,6.40
2019-05-09T21:24:58.885Z,6.63
2019-05-09T21:27:28.366Z,7.93
2019-05-09T21:29:57.763Z,8.30
2019-05-09T21:32:27.191Z,8.23
2019-05-09T21:34:56.351Z,7.87
2019-05-09T21:37:25.524Z,9.47
2019-05-09T21:39:54.748Z,10.27
2019-05-09T21:42:24.022Z,10.43
2019-05-09T21:44:53.230Z,9.07
2019-05-09T21:47:22.498Z,10.20
2019-05-09T21:49:51.726Z,10.10
2019-05-09T21:52:21.054Z,12.13
2019-05-09T21:54:50.211Z,11.57
2019-05-09T21:57:19.495Z,11.77
2019-05-09T21:59:48.805Z,12.03
2019-05-09T22:02:18.603Z,13.03
2019-05-09T22:04:47.831Z,11.17
2019-05-09T22:07:17.123Z,12.73
2019-05-09T22:09:46.347Z,21.87
2019-05-09T22:12:15.575Z,13.40
2019-05-09T22:14:44.868Z,12.53
2019-05-09T22:17:20.028Z,11.83
2019-05-09T22:19:49.283Z,13.97
2019-05-09T22:22:18.515Z,12.87
2019-05-09T22:24:47.787Z,13.03
2019-05-09T22:27:17.017Z,12.87
2019-05-09T22:29:46.338Z,13.97
2019-05-09T22:32:15.571Z,12.90
2019-05-09T22:34:44.826Z,13.50
2019-05-09T22:37:14.055Z,14.37
2019-05-09T22:39:43.351Z,12.90
2019-05-09T22:42:12.639Z,13.07
2019-05-09T22:44:41.883Z,12.53
2019-05-09T22:47:11.158Z,12.67
2019-05-09T22:49:40.411Z,13.43
2019-05-09T22:52:09.641Z,11.27
2019-05-09T22:54:38.958Z,10.33
2019-05-09T22:57:08.211Z,10.67
2019-05-09T22:59:37.503Z,9.43
2019-05-09T23:02:07.331Z,9.50
2019-05-09T23:04:36.610Z,10.23
2019-05-09T23:07:05.753Z,9.53
2019-05-09T23:09:35.011Z,9.37
2019-05-09T23:19:46.130Z,11.50
2019-05-09T23:22:15.383Z,11.80
2019-05-09T23:24:44.947Z,10.93
2019-05-09T23:27:16.474Z,10.23
2019-05-09T23:29:45.870Z,9.77
2019-05-09T23:32:21.630Z,11.50
2019-05-09T23:34:50.999Z,11.17
2019-05-09T23:37:20.298Z,10.23
2019-05-09T23:39:49.563Z,10.53
2019-05-09T23:42:18.790Z,9.20
2019-05-09T23:44:48.057Z,8.00
2019-05-09T23:47:17.311Z,8.47
2019-05-09T23:49:46.519Z,7.30
2019-05-09T23:52:15.822Z,6.67
2019-05-09T23:55:03.152Z,6.93
2019-05-09T23:57:50.220Z,6.70
